sensor_id;sensor_type;location;lat;lon;timestamp;temperature;humidity
70421;SHT31;57848;51.938;15.520;2023-06-24T00:02:13;15.81;94.16
70421;SHT31;57848;51.938;15.520;2023-06-24T00:04:38;15.85;93.98
70421;SHT31;57848;51.938;15.520;2023-06-24T00:07:04;15.87;93.64
70421;SHT31;57848;51.938;15.520;2023-06-24T00:09:29;15.82;94.23
70421;SHT31;57848;51.938;15.520;2023-06-24T00:11:58;15.85;93.84
70421;SHT31;57848;51.938;15.520;2023-06-24T00:14:25;15.82;94.00
70421;SHT31;57848;51.938;15.520;2023-06-24T00:16:52;15.87;94.46
70421;SHT31;57848;51.938;15.520;2023-06-24T00:19:22;15.88;94.29
70421;SHT31;57848;51.938;15.520;2023-06-24T00:21:48;15.87;94.47
70421;SHT31;57848;51.938;15.520;2023-06-24T00:24:16;15.87;94.34
70421;SHT31;57848;51.938;15.520;2023-06-24T00:26:43;15.99;94.45
70421;SHT31;57848;51.938;15.520;2023-06-24T00:29:08;15.91;93.82
70421;SHT31;57848;51.938;15.520;2023-06-24T00:31:33;15.97;94.28
70421;SHT31;57848;51.938;15.520;2023-06-24T00:33:59;15.98;93.82
70421;SHT31;57848;51.938;15.520;2023-06-24T00:36:24;16.06;93.92
70421;SHT31;57848;51.938;15.520;2023-06-24T00:38:51;16.04;93.91
70421;SHT31;57848;51.938;15.520;2023-06-24T00:41:17;15.95;94.33
70421;SHT31;57848;51.938;15.520;2023-06-24T00:43:44;16.06;94.10
70421;SHT31;57848;51.938;15.520;2023-06-24T00:46:10;16.05;94.28
70421;SHT31;57848;51.938;15.520;2023-06-24T00:48:35;16.16;92.50
70421;SHT31;57848;51.938;15.520;2023-06-24T00:51:01;16.09;93.62
70421;SHT31;57848;51.938;15.520;2023-06-24T00:53:27;16.08;93.75
70421;SHT31;57848;51.938;15.520;2023-06-24T00:55:53;16.05;94.11
70421;SHT31;57848;51.938;15.520;2023-06-24T00:58:20;16.09;94.24
70421;SHT31;57848;51.938;15.520;2023-06-24T01:00:47;16.20;93.36
70421;SHT31;57848;51.938;15.520;2023-06-24T01:03:26;16.16;94.08
70421;SHT31;57848;51.938;15.520;2023-06-24T01:05:54;16.16;94.84
70421;SHT31;57848;51.938;15.520;2023-06-24T01:08:19;16.16;94.49
70421;SHT31;57848;51.938;15.520;2023-06-24T01:10:48;16.12;94.92
70421;SHT31;57848;51.938;15.520;2023-06-24T01:13:13;16.15;95.03
70421;SHT31;57848;51.938;15.520;2023-06-24T01:15:40;16.15;95.10
70421;SHT31;57848;51.938;15.520;2023-06-24T01:18:13;16.15;95.16
70421;SHT31;57848;51.938;15.520;2023-06-24T01:21:03;16.16;95.05
70421;SHT31;57848;51.938;15.520;2023-06-24T01:26:32;16.25;95.24
70421;SHT31;57848;51.938;15.520;2023-06-24T01:32:03;16.23;95.29
70421;SHT31;57848;51.938;15.520;2023-06-24T01:34:33;16.23;95.52
70421;SHT31;57848;51.938;15.520;2023-06-24T01:37:14;16.28;95.05
70421;SHT31;57848;51.938;15.520;2023-06-24T01:42:42;16.28;95.65
70421;SHT31;57848;51.938;15.520;2023-06-24T01:45:12;16.15;95.54
70421;SHT31;57848;51.938;15.520;2023-06-24T01:47:40;16.18;95.31
70421;SHT31;57848;51.938;15.520;2023-06-24T01:50:10;16.20;95.73
70421;SHT31;57848;51.938;15.520;2023-06-24T01:52:38;16.20;95.98
70421;SHT31;57848;51.938;15.520;2023-06-24T01:55:08;16.18;95.92
70421;SHT31;57848;51.938;15.520;2023-06-24T01:57:36;16.25;95.72
70421;SHT31;57848;51.938;15.520;2023-06-24T02:00:02;16.20;96.13
70421;SHT31;57848;51.938;15.520;2023-06-24T02:02:47;16.19;95.78
70421;SHT31;57848;51.938;15.520;2023-06-24T02:05:15;16.20;95.52
70421;SHT31;57848;51.938;15.520;2023-06-24T02:07:42;16.22;95.89
70421;SHT31;57848;51.938;15.520;2023-06-24T02:10:09;16.18;95.88
70421;SHT31;57848;51.938;15.520;2023-06-24T02:12:35;16.18;95.57
70421;SHT31;57848;51.938;15.520;2023-06-24T02:15:01;16.16;96.18
70421;SHT31;57848;51.938;15.520;2023-06-24T02:17:28;16.15;96.04
70421;SHT31;57848;51.938;15.520;2023-06-24T02:19:55;16.15;96.17
70421;SHT31;57848;51.938;15.520;2023-06-24T02:22:21;16.22;95.55
70421;SHT31;57848;51.938;15.520;2023-06-24T02:24:49;16.20;95.52
70421;SHT31;57848;51.938;15.520;2023-06-24T02:27:14;16.16;95.89
70421;SHT31;57848;51.938;15.520;2023-06-24T02:29:40;16.16;95.88
70421;SHT31;57848;51.938;15.520;2023-06-24T02:32:07;16.13;95.97
70421;SHT31;57848;51.938;15.520;2023-06-24T02:34:32;16.04;95.87
70421;SHT31;57848;51.938;15.520;2023-06-24T02:36:59;16.09;95.94
70421;SHT31;57848;51.938;15.520;2023-06-24T02:39:24;15.99;96.23
70421;SHT31;57848;51.938;15.520;2023-06-24T02:41:50;16.02;96.20
70421;SHT31;57848;51.938;15.520;2023-06-24T02:44:16;16.02;96.35
70421;SHT31;57848;51.938;15.520;2023-06-24T02:46:45;15.98;96.37
70421;SHT31;57848;51.938;15.520;2023-06-24T02:49:13;16.01;96.72
70421;SHT31;57848;51.938;15.520;2023-06-24T02:51:41;15.98;96.82
70421;SHT31;57848;51.938;15.520;2023-06-24T02:54:07;16.01;96.64
70421;SHT31;57848;51.938;15.520;2023-06-24T02:56:59;16.06;96.42
70421;SHT31;57848;51.938;15.520;2023-06-24T02:59:37;16.01;96.63
70421;SHT31;57848;51.938;15.520;2023-06-24T03:02:08;16.04;96.29
70421;SHT31;57848;51.938;15.520;2023-06-24T03:04:34;16.01;96.65
70421;SHT31;57848;51.938;15.520;2023-06-24T03:07:00;16.02;96.61
70421;SHT31;57848;51.938;15.520;2023-06-24T03:09:33;16.02;96.64
70421;SHT31;57848;51.938;15.520;2023-06-24T03:11:59;16.04;96.41
70421;SHT31;57848;51.938;15.520;2023-06-24T03:14:34;15.99;96.98
70421;SHT31;57848;51.938;15.520;2023-06-24T03:16:59;16.04;96.68
70421;SHT31;57848;51.938;15.520;2023-06-24T03:19:26;16.04;96.65
70421;SHT31;57848;51.938;15.520;2023-06-24T03:21:52;16.05;96.51
70421;SHT31;57848;51.938;15.520;2023-06-24T03:24:17;16.08;96.49
70421;SHT31;57848;51.938;15.520;2023-06-24T03:26:46;16.06;96.54
70421;SHT31;57848;51.938;15.520;2023-06-24T03:29:13;16.05;96.51
70421;SHT31;57848;51.938;15.520;2023-06-24T03:31:51;16.09;96.35
70421;SHT31;57848;51.938;15.520;2023-06-24T03:34:20;16.10;96.47
70421;SHT31;57848;51.938;15.520;2023-06-24T03:36:45;16.08;96.49
70421;SHT31;57848;51.938;15.520;2023-06-24T03:39:13;16.12;96.54
70421;SHT31;57848;51.938;15.520;2023-06-24T03:41:38;16.16;96.14
70421;SHT31;57848;51.938;15.520;2023-06-24T03:44:04;16.13;96.62
70421;SHT31;57848;51.938;15.520;2023-06-24T03:46:33;16.18;96.34
70421;SHT31;57848;51.938;15.520;2023-06-24T03:48:59;16.15;96.68
70421;SHT31;57848;51.938;15.520;2023-06-24T03:51:26;16.15;96.79
70421;SHT31;57848;51.938;15.520;2023-06-24T03:53:52;16.12;96.49
70421;SHT31;57848;51.938;15.520;2023-06-24T03:56:17;16.12;96.51
70421;SHT31;57848;51.938;15.520;2023-06-24T03:58:43;16.15;96.60
70421;SHT31;57848;51.938;15.520;2023-06-24T04:01:08;16.15;96.51
70421;SHT31;57848;51.938;15.520;2023-06-24T04:03:34;16.18;96.53
70421;SHT31;57848;51.938;15.520;2023-06-24T04:06:00;16.20;96.64
70421;SHT31;57848;51.938;15.520;2023-06-24T04:08:27;16.23;96.51
70421;SHT31;57848;51.938;15.520;2023-06-24T04:10:58;16.26;96.39
70421;SHT31;57848;51.938;15.520;2023-06-24T04:13:28;16.25;96.26
70421;SHT31;57848;51.938;15.520;2023-06-24T04:15:54;16.28;95.80
70421;SHT31;57848;51.938;15.520;2023-06-24T04:18:19;16.30;96.10
70421;SHT31;57848;51.938;15.520;2023-06-24T04:20:45;16.28;96.56
70421;SHT31;57848;51.938;15.520;2023-06-24T04:23:12;16.28;96.21
70421;SHT31;57848;51.938;15.520;2023-06-24T04:25:39;16.30;96.32
70421;SHT31;57848;51.938;15.520;2023-06-24T04:28:05;16.33;96.18
70421;SHT31;57848;51.938;15.520;2023-06-24T04:30:31;16.39;95.34
70421;SHT31;57848;51.938;15.520;2023-06-24T04:32:57;16.36;96.10
70421;SHT31;57848;51.938;15.520;2023-06-24T04:35:22;16.40;95.94
70421;SHT31;57848;51.938;15.520;2023-06-24T04:37:48;16.40;96.03
70421;SHT31;57848;51.938;15.520;2023-06-24T04:40:17;16.42;96.52
70421;SHT31;57848;51.938;15.520;2023-06-24T04:42:42;16.47;95.99
70421;SHT31;57848;51.938;15.520;2023-06-24T04:45:08;16.55;95.56
70421;SHT31;57848;51.938;15.520;2023-06-24T04:47:33;16.59;95.59
70421;SHT31;57848;51.938;15.520;2023-06-24T04:49:59;16.59;95.17
70421;SHT31;57848;51.938;15.520;2023-06-24T04:52:24;16.57;95.46
70421;SHT31;57848;51.938;15.520;2023-06-24T04:54:49;16.61;95.25
70421;SHT31;57848;51.938;15.520;2023-06-24T04:57:26;16.63;95.15
70421;SHT31;57848;51.938;15.520;2023-06-24T04:59:52;16.64;95.47
70421;SHT31;57848;51.938;15.520;2023-06-24T05:02:17;16.69;94.34
70421;SHT31;57848;51.938;15.520;2023-06-24T05:04:43;16.67;94.93
70421;SHT31;57848;51.938;15.520;2023-06-24T05:07:08;16.73;94.48
70421;SHT31;57848;51.938;15.520;2023-06-24T05:09:33;16.78;94.01
70421;SHT31;57848;51.938;15.520;2023-06-24T05:12:03;16.80;93.90
70421;SHT31;57848;51.938;15.520;2023-06-24T05:14:28;16.83;94.36
70421;SHT31;57848;51.938;15.520;2023-06-24T05:16:54;16.91;94.14
70421;SHT31;57848;51.938;15.520;2023-06-24T05:19:19;16.94;93.35
70421;SHT31;57848;51.938;15.520;2023-06-24T05:21:44;16.94;93.38
70421;SHT31;57848;51.938;15.520;2023-06-24T05:24:10;16.98;93.37
70421;SHT31;57848;51.938;15.520;2023-06-24T05:26:35;16.92;93.26
70421;SHT31;57848;51.938;15.520;2023-06-24T05:29:00;16.88;94.01
70421;SHT31;57848;51.938;15.520;2023-06-24T05:31:26;16.85;93.39
70421;SHT31;57848;51.938;15.520;2023-06-24T05:33:51;16.85;93.71
70421;SHT31;57848;51.938;15.520;2023-06-24T05:36:16;16.78;93.20
70421;SHT31;57848;51.938;15.520;2023-06-24T05:38:42;16.80;94.07
70421;SHT31;57848;51.938;15.520;2023-06-24T05:41:07;16.78;94.54
70421;SHT31;57848;51.938;15.520;2023-06-24T05:43:32;16.77;94.65
70421;SHT31;57848;51.938;15.520;2023-06-24T05:45:58;16.78;94.71
70421;SHT31;57848;51.938;15.520;2023-06-24T05:48:23;16.83;95.20
70421;SHT31;57848;51.938;15.520;2023-06-24T05:50:48;16.90;94.95
70421;SHT31;57848;51.938;15.520;2023-06-24T05:53:14;16.92;93.96
70421;SHT31;57848;51.938;15.520;2023-06-24T05:55:39;17.03;92.72
70421;SHT31;57848;51.938;15.520;2023-06-24T05:58:04;16.98;92.27
70421;SHT31;57848;51.938;15.520;2023-06-24T06:00:30;17.00;91.97
70421;SHT31;57848;51.938;15.520;2023-06-24T06:02:55;16.94;92.47
70421;SHT31;57848;51.938;15.520;2023-06-24T06:05:20;17.07;92.75
70421;SHT31;57848;51.938;15.520;2023-06-24T06:07:46;17.08;91.19
70421;SHT31;57848;51.938;15.520;2023-06-24T06:10:11;17.10;90.77
70421;SHT31;57848;51.938;15.520;2023-06-24T06:12:36;17.12;90.58
70421;SHT31;57848;51.938;15.520;2023-06-24T06:15:02;17.12;90.84
70421;SHT31;57848;51.938;15.520;2023-06-24T06:17:27;17.17;90.86
70421;SHT31;57848;51.938;15.520;2023-06-24T06:19:52;17.18;91.38
70421;SHT31;57848;51.938;15.520;2023-06-24T06:22:18;17.22;90.48
70421;SHT31;57848;51.938;15.520;2023-06-24T06:24:43;17.28;90.32
70421;SHT31;57848;51.938;15.520;2023-06-24T06:27:10;17.34;91.34
70421;SHT31;57848;51.938;15.520;2023-06-24T06:29:36;17.40;91.44
70421;SHT31;57848;51.938;15.520;2023-06-24T06:32:02;17.43;89.81
70421;SHT31;57848;51.938;15.520;2023-06-24T06:34:27;17.52;91.45
70421;SHT31;57848;51.938;15.520;2023-06-24T06:36:52;17.63;90.54
70421;SHT31;57848;51.938;15.520;2023-06-24T06:39:18;17.67;90.60
70421;SHT31;57848;51.938;15.520;2023-06-24T06:41:43;17.82;90.77
70421;SHT31;57848;51.938;15.520;2023-06-24T06:44:14;17.89;90.73
70421;SHT31;57848;51.938;15.520;2023-06-24T06:46:40;17.87;90.19
70421;SHT31;57848;51.938;15.520;2023-06-24T06:49:05;17.97;89.57
70421;SHT31;57848;51.938;15.520;2023-06-24T06:51:30;18.01;88.73
70421;SHT31;57848;51.938;15.520;2023-06-24T06:53:55;18.10;87.82
70421;SHT31;57848;51.938;15.520;2023-06-24T06:56:25;18.21;89.19
70421;SHT31;57848;51.938;15.520;2023-06-24T06:58:54;18.21;87.26
70421;SHT31;57848;51.938;15.520;2023-06-24T07:01:19;18.37;87.93
70421;SHT31;57848;51.938;15.520;2023-06-24T07:03:45;18.44;86.30
70421;SHT31;57848;51.938;15.520;2023-06-24T07:06:10;18.43;88.11
70421;SHT31;57848;51.938;15.520;2023-06-24T07:08:35;18.48;87.37
70421;SHT31;57848;51.938;15.520;2023-06-24T07:11:04;18.76;87.00
70421;SHT31;57848;51.938;15.520;2023-06-24T07:13:29;18.94;85.13
70421;SHT31;57848;51.938;15.520;2023-06-24T07:15:54;19.12;84.02
70421;SHT31;57848;51.938;15.520;2023-06-24T07:18:20;19.20;84.17
70421;SHT31;57848;51.938;15.520;2023-06-24T07:20:45;19.22;84.59
70421;SHT31;57848;51.938;15.520;2023-06-24T07:23:11;19.12;85.19
70421;SHT31;57848;51.938;15.520;2023-06-24T07:25:36;19.10;82.88
70421;SHT31;57848;51.938;15.520;2023-06-24T07:28:02;19.15;83.49
70421;SHT31;57848;51.938;15.520;2023-06-24T07:30:27;19.28;84.68
70421;SHT31;57848;51.938;15.520;2023-06-24T07:32:52;19.46;83.67
70421;SHT31;57848;51.938;15.520;2023-06-24T07:35:18;19.64;83.81
70421;SHT31;57848;51.938;15.520;2023-06-24T07:37:44;19.81;82.82
70421;SHT31;57848;51.938;15.520;2023-06-24T07:40:10;19.94;82.09
70421;SHT31;57848;51.938;15.520;2023-06-24T07:42:35;20.08;81.10
70421;SHT31;57848;51.938;15.520;2023-06-24T07:45:00;20.04;80.74
70421;SHT31;57848;51.938;15.520;2023-06-24T07:47:26;20.22;81.32
70421;SHT31;57848;51.938;15.520;2023-06-24T07:49:51;20.40;82.15
70421;SHT31;57848;51.938;15.520;2023-06-24T07:52:17;20.52;79.51
70421;SHT31;57848;51.938;15.520;2023-06-24T07:54:43;20.56;80.61
70421;SHT31;57848;51.938;15.520;2023-06-24T07:57:08;20.47;79.72
70421;SHT31;57848;51.938;15.520;2023-06-24T07:59:33;20.37;80.09
70421;SHT31;57848;51.938;15.520;2023-06-24T08:01:59;20.35;78.87
70421;SHT31;57848;51.938;15.520;2023-06-24T08:04:24;20.36;78.88
70421;SHT31;57848;51.938;15.520;2023-06-24T08:06:50;20.32;80.37
70421;SHT31;57848;51.938;15.520;2023-06-24T08:09:16;20.37;81.79
70421;SHT31;57848;51.938;15.520;2023-06-24T08:11:42;20.39;79.36
70421;SHT31;57848;51.938;15.520;2023-06-24T08:14:08;20.33;78.46
70421;SHT31;57848;51.938;15.520;2023-06-24T08:16:33;20.32;76.79
70421;SHT31;57848;51.938;15.520;2023-06-24T08:18:58;20.21;76.38
70421;SHT31;57848;51.938;15.520;2023-06-24T08:21:24;20.32;74.75
70421;SHT31;57848;51.938;15.520;2023-06-24T08:23:49;20.49;76.18
70421;SHT31;57848;51.938;15.520;2023-06-24T08:26:15;20.72;75.22
70421;SHT31;57848;51.938;15.520;2023-06-24T08:28:41;20.83;75.54
70421;SHT31;57848;51.938;15.520;2023-06-24T08:31:06;20.83;74.73
70421;SHT31;57848;51.938;15.520;2023-06-24T08:33:31;20.76;74.88
70421;SHT31;57848;51.938;15.520;2023-06-24T08:35:57;20.83;75.04
70421;SHT31;57848;51.938;15.520;2023-06-24T08:38:23;21.14;74.37
70421;SHT31;57848;51.938;15.520;2023-06-24T08:40:49;21.30;74.20
70421;SHT31;57848;51.938;15.520;2023-06-24T08:43:14;21.41;72.93
70421;SHT31;57848;51.938;15.520;2023-06-24T08:45:40;21.37;73.66
70421;SHT31;57848;51.938;15.520;2023-06-24T08:48:05;21.41;73.58
70421;SHT31;57848;51.938;15.520;2023-06-24T08:50:35;21.46;69.79
70421;SHT31;57848;51.938;15.520;2023-06-24T08:53:03;21.46;71.56
70421;SHT31;57848;51.938;15.520;2023-06-24T08:55:32;21.54;72.47
70421;SHT31;57848;51.938;15.520;2023-06-24T08:57:59;21.72;71.94
70421;SHT31;57848;51.938;15.520;2023-06-24T09:00:26;21.79;72.25
70421;SHT31;57848;51.938;15.520;2023-06-24T09:02:51;21.85;70.61
70421;SHT31;57848;51.938;15.520;2023-06-24T09:05:17;21.89;70.07
70421;SHT31;57848;51.938;15.520;2023-06-24T09:07:42;21.85;69.98
70421;SHT31;57848;51.938;15.520;2023-06-24T09:10:08;21.81;69.27
70421;SHT31;57848;51.938;15.520;2023-06-24T09:12:34;21.79;68.00
70421;SHT31;57848;51.938;15.520;2023-06-24T09:15:00;21.61;66.72
70421;SHT31;57848;51.938;15.520;2023-06-24T09:17:25;21.69;68.00
70421;SHT31;57848;51.938;15.520;2023-06-24T09:19:51;21.79;68.92
70421;SHT31;57848;51.938;15.520;2023-06-24T09:22:17;21.86;65.05
70421;SHT31;57848;51.938;15.520;2023-06-24T09:24:45;21.81;64.79
70421;SHT31;57848;51.938;15.520;2023-06-24T09:27:17;21.82;66.23
70421;SHT31;57848;51.938;15.520;2023-06-24T09:29:45;21.92;67.38
70421;SHT31;57848;51.938;15.520;2023-06-24T09:32:12;21.93;65.73
70421;SHT31;57848;51.938;15.520;2023-06-24T09:34:38;21.89;65.85
70421;SHT31;57848;51.938;15.520;2023-06-24T09:37:04;22.16;65.80
70421;SHT31;57848;51.938;15.520;2023-06-24T09:39:35;22.37;61.94
70421;SHT31;57848;51.938;15.520;2023-06-24T09:42:02;22.43;64.54
70421;SHT31;57848;51.938;15.520;2023-06-24T09:44:28;22.54;62.45
70421;SHT31;57848;51.938;15.520;2023-06-24T09:46:54;22.55;61.52
70421;SHT31;57848;51.938;15.520;2023-06-24T09:49:21;22.69;62.04
70421;SHT31;57848;51.938;15.520;2023-06-24T09:51:48;22.72;60.59
70421;SHT31;57848;51.938;15.520;2023-06-24T09:54:15;22.91;61.58
70421;SHT31;57848;51.938;15.520;2023-06-24T09:56:47;22.95;61.35
70421;SHT31;57848;51.938;15.520;2023-06-24T09:59:13;22.85;61.84
70421;SHT31;57848;51.938;15.520;2023-06-24T10:01:41;22.81;62.27
70421;SHT31;57848;51.938;15.520;2023-06-24T10:04:08;22.79;63.15
70421;SHT31;57848;51.938;15.520;2023-06-24T10:06:34;22.90;61.88
70421;SHT31;57848;51.938;15.520;2023-06-24T10:09:03;22.94;63.33
70421;SHT31;57848;51.938;15.520;2023-06-24T10:11:28;23.11;63.38
70421;SHT31;57848;51.938;15.520;2023-06-24T10:13:54;23.19;61.94
70421;SHT31;57848;51.938;15.520;2023-06-24T10:16:20;23.36;59.98
70421;SHT31;57848;51.938;15.520;2023-06-24T10:18:46;23.63;59.10
70421;SHT31;57848;51.938;15.520;2023-06-24T10:21:12;23.97;58.29
70421;SHT31;57848;51.938;15.520;2023-06-24T10:23:42;24.22;57.67
70421;SHT31;57848;51.938;15.520;2023-06-24T10:26:28;24.42;57.01
70421;SHT31;57848;51.938;15.520;2023-06-24T10:42:28;25.84;50.01
70421;SHT31;57848;51.938;15.520;2023-06-24T10:47:22;27.57;47.83
70421;SHT31;57848;51.938;15.520;2023-06-24T10:49:48;26.68;49.87
70421;SHT31;57848;51.938;15.520;2023-06-24T10:52:13;26.58;49.35
70421;SHT31;57848;51.938;15.520;2023-06-24T10:54:40;27.92;47.61
70421;SHT31;57848;51.938;15.520;2023-06-24T10:57:06;28.85;44.30
70421;SHT31;57848;51.938;15.520;2023-06-24T10:59:42;28.59;44.67
70421;SHT31;57848;51.938;15.520;2023-06-24T11:02:08;28.49;45.24
70421;SHT31;57848;51.938;15.520;2023-06-24T11:07:11;28.00;47.81
70421;SHT31;57848;51.938;15.520;2023-06-24T11:09:37;28.11;46.83
70421;SHT31;57848;51.938;15.520;2023-06-24T11:12:03;28.61;46.37
70421;SHT31;57848;51.938;15.520;2023-06-24T11:14:28;29.35;43.68
70421;SHT31;57848;51.938;15.520;2023-06-24T11:16:54;30.56;42.46
70421;SHT31;57848;51.938;15.520;2023-06-24T11:19:19;31.25;39.38
70421;SHT31;57848;51.938;15.520;2023-06-24T11:21:45;32.20;38.89
70421;SHT31;57848;51.938;15.520;2023-06-24T11:24:10;32.57;37.75
70421;SHT31;57848;51.938;15.520;2023-06-24T11:26:36;31.99;39.19
70421;SHT31;57848;51.938;15.520;2023-06-24T11:29:09;29.95;42.30
70421;SHT31;57848;51.938;15.520;2023-06-24T11:31:35;28.89;45.22
70421;SHT31;57848;51.938;15.520;2023-06-24T11:34:01;27.65;47.19
70421;SHT31;57848;51.938;15.520;2023-06-24T11:36:26;28.08;46.11
70421;SHT31;57848;51.938;15.520;2023-06-24T11:38:51;28.64;45.19
70421;SHT31;57848;51.938;15.520;2023-06-24T11:41:20;28.03;46.96
70421;SHT31;57848;51.938;15.520;2023-06-24T11:43:46;27.19;48.59
70421;SHT31;57848;51.938;15.520;2023-06-24T11:46:41;26.19;50.93
70421;SHT31;57848;51.938;15.520;2023-06-24T11:49:08;27.01;49.20
70421;SHT31;57848;51.938;15.520;2023-06-24T11:51:35;28.40;46.19
70421;SHT31;57848;51.938;15.520;2023-06-24T11:54:05;29.71;44.76
70421;SHT31;57848;51.938;15.520;2023-06-24T11:56:38;29.53;45.25
70421;SHT31;57848;51.938;15.520;2023-06-24T11:59:15;31.00;43.16
70421;SHT31;57848;51.938;15.520;2023-06-24T12:01:44;30.50;42.51
70421;SHT31;57848;51.938;15.520;2023-06-24T12:04:14;30.33;43.59
70421;SHT31;57848;51.938;15.520;2023-06-24T12:06:43;30.19;43.92
70421;SHT31;57848;51.938;15.520;2023-06-24T12:09:09;30.19;43.88
70421;SHT31;57848;51.938;15.520;2023-06-24T12:11:34;29.94;43.43
70421;SHT31;57848;51.938;15.520;2023-06-24T12:14:00;29.80;43.95
70421;SHT31;57848;51.938;15.520;2023-06-24T12:16:26;31.24;42.01
70421;SHT31;57848;51.938;15.520;2023-06-24T12:18:52;31.99;39.10
70421;SHT31;57848;51.938;15.520;2023-06-24T12:21:17;31.04;39.86
70421;SHT31;57848;51.938;15.520;2023-06-24T12:23:43;30.70;40.65
70421;SHT31;57848;51.938;15.520;2023-06-24T12:26:09;30.80;41.68
70421;SHT31;57848;51.938;15.520;2023-06-24T12:28:34;31.25;40.70
70421;SHT31;57848;51.938;15.520;2023-06-24T12:31:00;31.69;41.68
70421;SHT31;57848;51.938;15.520;2023-06-24T12:33:25;31.46;40.38
70421;SHT31;57848;51.938;15.520;2023-06-24T12:35:50;32.13;39.33
70421;SHT31;57848;51.938;15.520;2023-06-24T12:38:16;32.72;37.87
70421;SHT31;57848;51.938;15.520;2023-06-24T12:40:42;31.53;39.19
70421;SHT31;57848;51.938;15.520;2023-06-24T12:43:07;30.52;40.77
70421;SHT31;57848;51.938;15.520;2023-06-24T12:45:32;30.35;41.57
70421;SHT31;57848;51.938;15.520;2023-06-24T12:47:58;31.53;38.94
70421;SHT31;57848;51.938;15.520;2023-06-24T12:50:24;32.07;38.86
70421;SHT31;57848;51.938;15.520;2023-06-24T12:52:49;32.44;38.04
70421;SHT31;57848;51.938;15.520;2023-06-24T12:55:15;33.02;36.81
70421;SHT31;57848;51.938;15.520;2023-06-24T12:57:40;32.94;37.66
70421;SHT31;57848;51.938;15.520;2023-06-24T13:00:06;33.29;36.65
70421;SHT31;57848;51.938;15.520;2023-06-24T13:02:31;34.11;35.65
70421;SHT31;57848;51.938;15.520;2023-06-24T13:04:57;34.64;34.09
70421;SHT31;57848;51.938;15.520;2023-06-24T13:07:23;34.17;34.45
70421;SHT31;57848;51.938;15.520;2023-06-24T13:09:48;33.59;35.31
70421;SHT31;57848;51.938;15.520;2023-06-24T13:12:13;31.89;37.17
70421;SHT31;57848;51.938;15.520;2023-06-24T13:14:38;32.57;37.12
70421;SHT31;57848;51.938;15.520;2023-06-24T13:17:04;33.11;36.12
70421;SHT31;57848;51.938;15.520;2023-06-24T13:19:30;32.38;36.74
70421;SHT31;57848;51.938;15.520;2023-06-24T13:21:55;30.88;38.41
70421;SHT31;57848;51.938;15.520;2023-06-24T13:24:20;29.63;40.76
70421;SHT31;57848;51.938;15.520;2023-06-24T13:26:46;30.05;39.96
70421;SHT31;57848;51.938;15.520;2023-06-24T13:29:11;31.14;39.30
70421;SHT31;57848;51.938;15.520;2023-06-24T13:31:36;31.80;36.93
70421;SHT31;57848;51.938;15.520;2023-06-24T13:34:02;32.29;36.20
70421;SHT31;57848;51.938;15.520;2023-06-24T13:36:35;33.19;34.64
70421;SHT31;57848;51.938;15.520;2023-06-24T13:39:08;33.33;33.92
70421;SHT31;57848;51.938;15.520;2023-06-24T13:41:37;32.77;34.38
70421;SHT31;57848;51.938;15.520;2023-06-24T13:44:03;32.98;35.12
70421;SHT31;57848;51.938;15.520;2023-06-24T13:46:30;32.71;35.39
70421;SHT31;57848;51.938;15.520;2023-06-24T13:48:56;32.36;36.28
70421;SHT31;57848;51.938;15.520;2023-06-24T13:51:22;32.12;37.22
70421;SHT31;57848;51.938;15.520;2023-06-24T13:53:49;31.39;38.32
70421;SHT31;57848;51.938;15.520;2023-06-24T13:56:19;30.16;39.51
70421;SHT31;57848;51.938;15.520;2023-06-24T13:58:45;29.89;40.74
70421;SHT31;57848;51.938;15.520;2023-06-24T14:01:11;29.57;41.46
70421;SHT31;57848;51.938;15.520;2023-06-24T14:03:36;29.95;40.64
70421;SHT31;57848;51.938;15.520;2023-06-24T14:06:02;30.90;38.81
70421;SHT31;57848;51.938;15.520;2023-06-24T14:08:29;30.56;38.34
70421;SHT31;57848;51.938;15.520;2023-06-24T14:10:55;30.33;39.17
70421;SHT31;57848;51.938;15.520;2023-06-24T14:13:21;29.82;40.36
70421;SHT31;57848;51.938;15.520;2023-06-24T14:15:47;29.38;40.27
70421;SHT31;57848;51.938;15.520;2023-06-24T14:18:12;28.69;40.85
70421;SHT31;57848;51.938;15.520;2023-06-24T14:20:37;27.97;42.01
70421;SHT31;57848;51.938;15.520;2023-06-24T14:23:04;28.17;42.53
70421;SHT31;57848;51.938;15.520;2023-06-24T14:25:29;27.66;42.74
70421;SHT31;57848;51.938;15.520;2023-06-24T14:27:55;27.35;43.74
70421;SHT31;57848;51.938;15.520;2023-06-24T14:30:20;26.99;44.01
70421;SHT31;57848;51.938;15.520;2023-06-24T14:32:45;26.88;44.68
70421;SHT31;57848;51.938;15.520;2023-06-24T14:35:11;26.88;44.03
70421;SHT31;57848;51.938;15.520;2023-06-24T14:37:36;26.83;44.79
70421;SHT31;57848;51.938;15.520;2023-06-24T14:40:02;26.73;44.68
70421;SHT31;57848;51.938;15.520;2023-06-24T14:42:27;26.61;45.59
70421;SHT31;57848;51.938;15.520;2023-06-24T14:44:52;26.57;45.37
70421;SHT31;57848;51.938;15.520;2023-06-24T14:47:18;26.50;45.43
70421;SHT31;57848;51.938;15.520;2023-06-24T14:49:43;26.47;45.14
70421;SHT31;57848;51.938;15.520;2023-06-24T14:52:08;26.74;45.19
70421;SHT31;57848;51.938;15.520;2023-06-24T14:54:34;26.74;44.88
70421;SHT31;57848;51.938;15.520;2023-06-24T14:56:59;26.83;45.45
70421;SHT31;57848;51.938;15.520;2023-06-24T14:59:24;26.71;45.88
70421;SHT31;57848;51.938;15.520;2023-06-24T15:01:50;26.37;46.10
70421;SHT31;57848;51.938;15.520;2023-06-24T15:04:15;26.19;47.67
70421;SHT31;57848;51.938;15.520;2023-06-24T15:06:40;26.13;46.73
70421;SHT31;57848;51.938;15.520;2023-06-24T15:09:06;26.19;46.33
70421;SHT31;57848;51.938;15.520;2023-06-24T15:11:31;26.16;45.39
70421;SHT31;57848;51.938;15.520;2023-06-24T15:13:56;26.35;46.53
70421;SHT31;57848;51.938;15.520;2023-06-24T15:16:22;26.33;45.95
70421;SHT31;57848;51.938;15.520;2023-06-24T15:18:47;26.44;47.59
70421;SHT31;57848;51.938;15.520;2023-06-24T15:21:14;26.47;46.64
70421;SHT31;57848;51.938;15.520;2023-06-24T15:23:39;26.41;45.68
70421;SHT31;57848;51.938;15.520;2023-06-24T15:26:05;26.09;46.29
70421;SHT31;57848;51.938;15.520;2023-06-24T15:28:30;26.22;46.11
70421;SHT31;57848;51.938;15.520;2023-06-24T15:30:55;25.95;46.70
70421;SHT31;57848;51.938;15.520;2023-06-24T15:33:21;25.93;47.74
70421;SHT31;57848;51.938;15.520;2023-06-24T15:35:46;25.64;47.88
70421;SHT31;57848;51.938;15.520;2023-06-24T15:38:12;25.61;47.29
70421;SHT31;57848;51.938;15.520;2023-06-24T15:40:40;25.78;47.45